sensor_id;sensor_type;location;lat;lon;timestamp;P1;durP1;ratioP1;P2;durP2;ratioP2
22603;SDS011;11469;49.024;8.246;2023-05-07T00:01:03;5.80;;;2.78;;
22603;SDS011;11469;49.024;8.246;2023-05-07T00:03:30;4.97;;;2.65;;
22603;SDS011;11469;49.024;8.246;2023-05-07T00:05:56;5.70;;;2.85;;
22603;SDS011;11469;49.024;8.246;2023-05-07T00:08:21;6.05;;;2.90;;
22603;SDS011;11469;49.024;8.246;2023-05-07T00:10:47;9.65;;;2.80;;
22603;SDS011;11469;49.024;8.246;2023-05-07T00:13:12;4.18;;;2.22;;
22603;SDS011;11469;49.024;8.246;2023-05-07T00:15:38;6.07;;;3.45;;
22603;SDS011;11469;49.024;8.246;2023-05-07T00:18:03;7.07;;;2.55;;
22603;SDS011;11469;49.024;8.246;2023-05-07T00:20:29;6.60;;;2.70;;
22603;SDS011;11469;49.024;8.246;2023-05-07T00:22:54;2.92;;;2.13;;
22603;SDS011;11469;49.024;8.246;2023-05-07T00:25:19;5.72;;;2.60;;
22603;SDS011;11469;49.024;8.246;2023-05-07T00:27:45;4.55;;;2.72;;
22603;SDS011;11469;49.024;8.246;2023-05-07T00:30:10;5.25;;;2.80;;
22603;SDS011;11469;49.024;8.246;2023-05-07T00:32:36;12.07;;;2.72;;
22603;SDS011;11469;49.024;8.246;2023-05-07T00:35:03;8.35;;;3.30;;
22603;SDS011;11469;49.024;8.246;2023-05-07T00:37:29;5.38;;;2.78;;
22603;SDS011;11469;49.024;8.246;2023-05-07T00:39:55;9.02;;;2.70;;
22603;SDS011;11469;49.024;8.246;2023-05-07T00:42:20;7.43;;;3.00;;
22603;SDS011;11469;49.024;8.246;2023-05-07T00:44:45;4.53;;;2.42;;
22603;SDS011;11469;49.024;8.246;2023-05-07T00:47:11;5.35;;;3.20;;
22603;SDS011;11469;49.024;8.246;2023-05-07T00:49:38;8.57;;;3.22;;
22603;SDS011;11469;49.024;8.246;2023-05-07T00:52:06;7.80;;;3.63;;
22603;SDS011;11469;49.024;8.246;2023-05-07T00:54:33;4.78;;;3.00;;
22603;SDS011;11469;49.024;8.246;2023-05-07T00:56:59;6.75;;;3.50;;
22603;SDS011;11469;49.024;8.246;2023-05-07T00:59:25;7.63;;;4.38;;
22603;SDS011;11469;49.024;8.246;2023-05-07T01:01:51;5.50;;;3.50;;
22603;SDS011;11469;49.024;8.246;2023-05-07T01:04:17;7.95;;;3.80;;
22603;SDS011;11469;49.024;8.246;2023-05-07T01:06:42;9.63;;;3.88;;
22603;SDS011;11469;49.024;8.246;2023-05-07T01:09:10;7.82;;;3.92;;
22603;SDS011;11469;49.024;8.246;2023-05-07T01:11:35;8.30;;;3.75;;
22603;SDS011;11469;49.024;8.246;2023-05-07T01:14:01;9.45;;;4.30;;
22603;SDS011;11469;49.024;8.246;2023-05-07T01:16:27;5.38;;;3.90;;
22603;SDS011;11469;49.024;8.246;2023-05-07T01:18:52;8.40;;;3.85;;
22603;SDS011;11469;49.024;8.246;2023-05-07T01:21:18;6.53;;;3.92;;
22603;SDS011;11469;49.024;8.246;2023-05-07T01:23:46;6.18;;;3.58;;
22603;SDS011;11469;49.024;8.246;2023-05-07T01:26:12;8.73;;;4.00;;
22603;SDS011;11469;49.024;8.246;2023-05-07T01:28:37;5.88;;;3.53;;
22603;SDS011;11469;49.024;8.246;2023-05-07T01:31:03;4.80;;;3.45;;
22603;SDS011;11469;49.024;8.246;2023-05-07T01:33:31;5.00;;;3.35;;
22603;SDS011;11469;49.024;8.246;2023-05-07T01:35:59;7.25;;;3.65;;
22603;SDS011;11469;49.024;8.246;2023-05-07T01:38:27;6.05;;;3.95;;
22603;SDS011;11469;49.024;8.246;2023-05-07T01:40:53;8.07;;;4.00;;
22603;SDS011;11469;49.024;8.246;2023-05-07T01:43:19;7.75;;;4.10;;
22603;SDS011;11469;49.024;8.246;2023-05-07T01:45:45;8.95;;;4.18;;
22603;SDS011;11469;49.024;8.246;2023-05-07T01:48:11;18.08;;;4.03;;
22603;SDS011;11469;49.024;8.246;2023-05-07T01:50:37;8.05;;;4.05;;
22603;SDS011;11469;49.024;8.246;2023-05-07T01:53:03;6.85;;;3.72;;
22603;SDS011;11469;49.024;8.246;2023-05-07T01:55:29;11.38;;;4.30;;
22603;SDS011;11469;49.024;8.246;2023-05-07T01:57:54;7.20;;;3.92;;
22603;SDS011;11469;49.024;8.246;2023-05-07T02:00:20;7.20;;;3.58;;
22603;SDS011;11469;49.024;8.246;2023-05-07T02:02:45;6.88;;;3.65;;
22603;SDS011;11469;49.024;8.246;2023-05-07T02:05:11;13.35;;;4.13;;
22603;SDS011;11469;49.024;8.246;2023-05-07T02:07:36;6.88;;;3.63;;
22603;SDS011;11469;49.024;8.246;2023-05-07T02:10:02;8.50;;;4.45;;
22603;SDS011;11469;49.024;8.246;2023-05-07T02:12:28;9.48;;;3.72;;
22603;SDS011;11469;49.024;8.246;2023-05-07T02:14:53;7.82;;;3.45;;
22603;SDS011;11469;49.024;8.246;2023-05-07T02:17:18;7.35;;;3.95;;
22603;SDS011;11469;49.024;8.246;2023-05-07T02:19:44;9.95;;;4.28;;
22603;SDS011;11469;49.024;8.246;2023-05-07T02:22:09;11.25;;;3.53;;
22603;SDS011;11469;49.024;8.246;2023-05-07T02:24:35;6.28;;;3.47;;
22603;SDS011;11469;49.024;8.246;2023-05-07T02:27:00;6.97;;;3.55;;
22603;SDS011;11469;49.024;8.246;2023-05-07T02:29:26;5.95;;;3.55;;
22603;SDS011;11469;49.024;8.246;2023-05-07T02:31:51;6.55;;;3.50;;
22603;SDS011;11469;49.024;8.246;2023-05-07T02:34:18;7.65;;;4.13;;
22603;SDS011;11469;49.024;8.246;2023-05-07T02:36:43;5.63;;;3.85;;
22603;SDS011;11469;49.024;8.246;2023-05-07T02:39:09;6.07;;;3.60;;
22603;SDS011;11469;49.024;8.246;2023-05-07T02:41:34;9.32;;;4.35;;
22603;SDS011;11469;49.024;8.246;2023-05-07T02:43:59;11.80;;;3.70;;
22603;SDS011;11469;49.024;8.246;2023-05-07T02:46:25;6.03;;;3.63;;
22603;SDS011;11469;49.024;8.246;2023-05-07T02:48:50;7.88;;;3.45;;
22603;SDS011;11469;49.024;8.246;2023-05-07T02:51:19;6.53;;;3.88;;
22603;SDS011;11469;49.024;8.246;2023-05-07T02:53:45;9.82;;;3.92;;
22603;SDS011;11469;49.024;8.246;2023-05-07T02:56:11;5.30;;;3.00;;
22603;SDS011;11469;49.024;8.246;2023-05-07T02:58:36;5.45;;;3.30;;
22603;SDS011;11469;49.024;8.246;2023-05-07T03:01:04;6.35;;;3.28;;
22603;SDS011;11469;49.024;8.246;2023-05-07T03:03:30;6.93;;;3.38;;
22603;SDS011;11469;49.024;8.246;2023-05-07T03:05:55;4.85;;;3.60;;
22603;SDS011;11469;49.024;8.246;2023-05-07T03:08:21;13.60;;;3.25;;
22603;SDS011;11469;49.024;8.246;2023-05-07T03:10:46;6.43;;;3.92;;
22603;SDS011;11469;49.024;8.246;2023-05-07T03:13:12;6.38;;;3.40;;
22603;SDS011;11469;49.024;8.246;2023-05-07T03:15:37;7.47;;;3.38;;
22603;SDS011;11469;49.024;8.246;2023-05-07T03:18:02;8.00;;;3.90;;
22603;SDS011;11469;49.024;8.246;2023-05-07T03:20:28;4.93;;;3.17;;
22603;SDS011;11469;49.024;8.246;2023-05-07T03:22:53;5.22;;;3.17;;
22603;SDS011;11469;49.024;8.246;2023-05-07T03:25:19;9.75;;;3.83;;
22603;SDS011;11469;49.024;8.246;2023-05-07T03:27:44;6.00;;;3.72;;
22603;SDS011;11469;49.024;8.246;2023-05-07T03:30:10;5.05;;;3.45;;
22603;SDS011;11469;49.024;8.246;2023-05-07T03:32:36;11.27;;;3.92;;
22603;SDS011;11469;49.024;8.246;2023-05-07T03:35:01;6.20;;;3.63;;
22603;SDS011;11469;49.024;8.246;2023-05-07T03:37:27;5.03;;;3.67;;
22603;SDS011;11469;49.024;8.246;2023-05-07T03:39:52;5.93;;;3.72;;
22603;SDS011;11469;49.024;8.246;2023-05-07T03:42:18;7.18;;;3.88;;
22603;SDS011;11469;49.024;8.246;2023-05-07T03:44:43;8.00;;;3.95;;
22603;SDS011;11469;49.024;8.246;2023-05-07T03:47:09;7.40;;;3.90;;
22603;SDS011;11469;49.024;8.246;2023-05-07T03:49:35;5.63;;;4.00;;
22603;SDS011;11469;49.024;8.246;2023-05-07T03:52:00;7.35;;;4.45;;
22603;SDS011;11469;49.024;8.246;2023-05-07T03:54:26;11.52;;;4.20;;
22603;SDS011;11469;49.024;8.246;2023-05-07T03:56:51;7.90;;;4.40;;
22603;SDS011;11469;49.024;8.246;2023-05-07T03:59:17;12.52;;;4.45;;
22603;SDS011;11469;49.024;8.246;2023-05-07T04:01:42;6.38;;;4.20;;
22603;SDS011;11469;49.024;8.246;2023-05-07T04:04:07;10.48;;;4.35;;
22603;SDS011;11469;49.024;8.246;2023-05-07T04:06:33;8.98;;;4.28;;
22603;SDS011;11469;49.024;8.246;2023-05-07T04:08:58;7.13;;;3.75;;
22603;SDS011;11469;49.024;8.246;2023-05-07T04:11:23;7.65;;;3.83;;
22603;SDS011;11469;49.024;8.246;2023-05-07T04:13:50;6.78;;;4.28;;
22603;SDS011;11469;49.024;8.246;2023-05-07T04:16:15;9.27;;;3.72;;
22603;SDS011;11469;49.024;8.246;2023-05-07T04:18:40;6.15;;;3.50;;
22603;SDS011;11469;49.024;8.246;2023-05-07T04:21:13;4.75;;;3.20;;
22603;SDS011;11469;49.024;8.246;2023-05-07T04:23:42;7.82;;;3.60;;
22603;SDS011;11469;49.024;8.246;2023-05-07T04:26:07;8.05;;;3.50;;
22603;SDS011;11469;49.024;8.246;2023-05-07T04:28:33;6.65;;;3.38;;
22603;SDS011;11469;49.024;8.246;2023-05-07T04:30:59;6.50;;;3.65;;
22603;SDS011;11469;49.024;8.246;2023-05-07T04:33:24;6.90;;;3.80;;
22603;SDS011;11469;49.024;8.246;2023-05-07T04:35:50;6.38;;;3.58;;
22603;SDS011;11469;49.024;8.246;2023-05-07T04:38:15;10.13;;;4.45;;
22603;SDS011;11469;49.024;8.246;2023-05-07T04:40:41;12.90;;;4.40;;
22603;SDS011;11469;49.024;8.246;2023-05-07T04:43:07;6.43;;;4.13;;
22603;SDS011;11469;49.024;8.246;2023-05-07T04:45:34;8.35;;;4.60;;
22603;SDS011;11469;49.024;8.246;2023-05-07T04:48:00;8.68;;;4.63;;
22603;SDS011;11469;49.024;8.246;2023-05-07T04:50:25;8.68;;;4.03;;
22603;SDS011;11469;49.024;8.246;2023-05-07T04:52:51;9.45;;;4.50;;
22603;SDS011;11469;49.024;8.246;2023-05-07T04:55:18;9.52;;;4.55;;
22603;SDS011;11469;49.024;8.246;2023-05-07T04:57:43;5.63;;;4.20;;
22603;SDS011;11469;49.024;8.246;2023-05-07T05:00:09;12.00;;;4.50;;
22603;SDS011;11469;49.024;8.246;2023-05-07T05:02:35;8.32;;;5.60;;
22603;SDS011;11469;49.024;8.246;2023-05-07T05:05:00;8.80;;;4.97;;
22603;SDS011;11469;49.024;8.246;2023-05-07T05:07:29;7.00;;;4.47;;
22603;SDS011;11469;49.024;8.246;2023-05-07T05:09:54;7.75;;;4.00;;
22603;SDS011;11469;49.024;8.246;2023-05-07T05:12:20;8.35;;;4.50;;
22603;SDS011;11469;49.024;8.246;2023-05-07T05:14:46;9.48;;;4.97;;
22603;SDS011;11469;49.024;8.246;2023-05-07T05:17:12;7.93;;;4.68;;
22603;SDS011;11469;49.024;8.246;2023-05-07T05:19:37;8.95;;;4.60;;
22603;SDS011;11469;49.024;8.246;2023-05-07T05:22:02;9.48;;;4.95;;
22603;SDS011;11469;49.024;8.246;2023-05-07T05:24:29;8.55;;;4.53;;
22603;SDS011;11469;49.024;8.246;2023-05-07T05:26:55;7.57;;;4.30;;
22603;SDS011;11469;49.024;8.246;2023-05-07T05:29:21;10.02;;;4.72;;
22603;SDS011;11469;49.024;8.246;2023-05-07T05:31:46;8.45;;;4.53;;
22603;SDS011;11469;49.024;8.246;2023-05-07T05:34:11;7.45;;;4.57;;
22603;SDS011;11469;49.024;8.246;2023-05-07T05:36:37;7.60;;;4.63;;
22603;SDS011;11469;49.024;8.246;2023-05-07T05:39:02;7.28;;;4.70;;
22603;SDS011;11469;49.024;8.246;2023-05-07T05:41:29;7.90;;;4.22;;
22603;SDS011;11469;49.024;8.246;2023-05-07T05:43:54;9.00;;;4.57;;
22603;SDS011;11469;49.024;8.246;2023-05-07T05:46:20;10.70;;;4.32;;
22603;SDS011;11469;49.024;8.246;2023-05-07T05:48:45;8.30;;;4.75;;
22603;SDS011;11469;49.024;8.246;2023-05-07T05:51:11;9.35;;;4.75;;
22603;SDS011;11469;49.024;8.246;2023-05-07T05:53:36;6.30;;;4.32;;
22603;SDS011;11469;49.024;8.246;2023-05-07T05:56:02;8.07;;;4.30;;
22603;SDS011;11469;49.024;8.246;2023-05-07T05:58:28;6.20;;;4.50;;
22603;SDS011;11469;49.024;8.246;2023-05-07T06:00:53;10.20;;;4.90;;
22603;SDS011;11469;49.024;8.246;2023-05-07T06:03:19;8.43;;;4.47;;
22603;SDS011;11469;49.024;8.246;2023-05-07T06:05:45;14.48;;;4.30;;
22603;SDS011;11469;49.024;8.246;2023-05-07T06:08:10;8.82;;;4.80;;
22603;SDS011;11469;49.024;8.246;2023-05-07T06:10:36;8.80;;;5.13;;
22603;SDS011;11469;49.024;8.246;2023-05-07T06:13:02;7.65;;;4.50;;
22603;SDS011;11469;49.024;8.246;2023-05-07T06:15:28;7.65;;;4.28;;
22603;SDS011;11469;49.024;8.246;2023-05-07T06:17:53;7.40;;;4.28;;
22603;SDS011;11469;49.024;8.246;2023-05-07T06:20:21;9.60;;;4.57;;
22603;SDS011;11469;49.024;8.246;2023-05-07T06:22:46;7.78;;;4.28;;
22603;SDS011;11469;49.024;8.246;2023-05-07T06:25:12;6.47;;;4.35;;
22603;SDS011;11469;49.024;8.246;2023-05-07T06:27:37;10.38;;;4.22;;
22603;SDS011;11469;49.024;8.246;2023-05-07T06:30:04;7.75;;;4.47;;
22603;SDS011;11469;49.024;8.246;2023-05-07T06:32:30;7.72;;;4.28;;
22603;SDS011;11469;49.024;8.246;2023-05-07T06:34:56;6.93;;;4.18;;
22603;SDS011;11469;49.024;8.246;2023-05-07T06:37:22;7.55;;;4.07;;
22603;SDS011;11469;49.024;8.246;2023-05-07T06:39:47;7.10;;;4.35;;
22603;SDS011;11469;49.024;8.246;2023-05-07T06:42:13;5.03;;;3.50;;
22603;SDS011;11469;49.024;8.246;2023-05-07T06:44:39;6.32;;;3.55;;
22603;SDS011;11469;49.024;8.246;2023-05-07T06:47:04;14.50;;;3.38;;
22603;SDS011;11469;49.024;8.246;2023-05-07T06:49:30;8.23;;;3.55;;
22603;SDS011;11469;49.024;8.246;2023-05-07T06:51:56;8.85;;;4.22;;
22603;SDS011;11469;49.024;8.246;2023-05-07T06:54:22;4.65;;;3.40;;
22603;SDS011;11469;49.024;8.246;2023-05-07T06:56:48;4.43;;;3.17;;
22603;SDS011;11469;49.024;8.246;2023-05-07T06:59:13;6.00;;;3.30;;
22603;SDS011;11469;49.024;8.246;2023-05-07T07:01:39;12.30;;;3.47;;
22603;SDS011;11469;49.024;8.246;2023-05-07T07:04:05;6.18;;;3.28;;
22603;SDS011;11469;49.024;8.246;2023-05-07T07:06:30;8.35;;;3.15;;
22603;SDS011;11469;49.024;8.246;2023-05-07T07:08:57;4.60;;;2.83;;
22603;SDS011;11469;49.024;8.246;2023-05-07T07:11:22;10.70;;;3.28;;
22603;SDS011;11469;49.024;8.246;2023-05-07T07:13:48;5.22;;;3.28;;
22603;SDS011;11469;49.024;8.246;2023-05-07T07:16:13;5.70;;;3.33;;
22603;SDS011;11469;49.024;8.246;2023-05-07T07:18:39;5.57;;;3.00;;
22603;SDS011;11469;49.024;8.246;2023-05-07T07:21:04;6.13;;;2.90;;
22603;SDS011;11469;49.024;8.246;2023-05-07T07:23:30;5.85;;;3.10;;
22603;SDS011;11469;49.024;8.246;2023-05-07T07:25:55;8.63;;;3.10;;
22603;SDS011;11469;49.024;8.246;2023-05-07T07:28:21;4.53;;;2.88;;
22603;SDS011;11469;49.024;8.246;2023-05-07T07:30:47;6.30;;;2.60;;
22603;SDS011;11469;49.024;8.246;2023-05-07T07:33:12;5.95;;;3.10;;
22603;SDS011;11469;49.024;8.246;2023-05-07T07:35:38;5.05;;;3.55;;
22603;SDS011;11469;49.024;8.246;2023-05-07T07:38:03;5.70;;;3.25;;
22603;SDS011;11469;49.024;8.246;2023-05-07T07:40:28;5.32;;;3.22;;
22603;SDS011;11469;49.024;8.246;2023-05-07T07:42:54;6.47;;;2.85;;
22603;SDS011;11469;49.024;8.246;2023-05-07T07:45:19;4.05;;;2.95;;
22603;SDS011;11469;49.024;8.246;2023-05-07T07:47:45;9.93;;;2.88;;
22603;SDS011;11469;49.024;8.246;2023-05-07T07:50:11;5.78;;;2.90;;
22603;SDS011;11469;49.024;8.246;2023-05-07T07:52:36;4.15;;;2.80;;
22603;SDS011;11469;49.024;8.246;2023-05-07T07:55:02;5.68;;;2.80;;
22603;SDS011;11469;49.024;8.246;2023-05-07T07:57:27;6.78;;;2.95;;
22603;SDS011;11469;49.024;8.246;2023-05-07T07:59:53;6.45;;;2.67;;
22603;SDS011;11469;49.024;8.246;2023-05-07T08:02:18;5.18;;;3.08;;
22603;SDS011;11469;49.024;8.246;2023-05-07T08:04:44;4.72;;;2.63;;
22603;SDS011;11469;49.024;8.246;2023-05-07T08:07:09;4.45;;;2.70;;
22603;SDS011;11469;49.024;8.246;2023-05-07T08:09:36;7.07;;;2.60;;
22603;SDS011;11469;49.024;8.246;2023-05-07T08:12:02;9.55;;;2.63;;
22603;SDS011;11469;49.024;8.246;2023-05-07T08:14:28;4.60;;;2.63;;
22603;SDS011;11469;49.024;8.246;2023-05-07T08:16:54;5.43;;;2.83;;
22603;SDS011;11469;49.024;8.246;2023-05-07T08:19:20;7.80;;;2.97;;
22603;SDS011;11469;49.024;8.246;2023-05-07T08:21:46;7.05;;;2.30;;
22603;SDS011;11469;49.024;8.246;2023-05-07T08:24:15;3.72;;;2.45;;
22603;SDS011;11469;49.024;8.246;2023-05-07T08:26:41;7.03;;;2.60;;
22603;SDS011;11469;49.024;8.246;2023-05-07T08:29:07;4.72;;;2.00;;
22603;SDS011;11469;49.024;8.246;2023-05-07T08:31:33;4.07;;;2.50;;
22603;SDS011;11469;49.024;8.246;2023-05-07T08:33:58;6.30;;;2.75;;
22603;SDS011;11469;49.024;8.246;2023-05-07T08:36:24;10.02;;;2.70;;
22603;SDS011;11469;49.024;8.246;2023-05-07T08:38:50;4.57;;;2.83;;
22603;SDS011;11469;49.024;8.246;2023-05-07T08:41:16;4.32;;;2.95;;
22603;SDS011;11469;49.024;8.246;2023-05-07T08:43:42;5.50;;;2.70;;
22603;SDS011;11469;49.024;8.246;2023-05-07T08:46:13;5.10;;;2.35;;
22603;SDS011;11469;49.024;8.246;2023-05-07T08:48:50;4.15;;;2.42;;
22603;SDS011;11469;49.024;8.246;2023-05-07T08:51:17;3.38;;;2.47;;
22603;SDS011;11469;49.024;8.246;2023-05-07T08:53:44;8.23;;;3.35;;
22603;SDS011;11469;49.024;8.246;2023-05-07T08:56:10;3.97;;;3.00;;
22603;SDS011;11469;49.024;8.246;2023-05-07T08:58:36;8.52;;;3.05;;
22603;SDS011;11469;49.024;8.246;2023-05-07T09:01:03;5.40;;;3.35;;
22603;SDS011;11469;49.024;8.246;2023-05-07T09:03:32;5.97;;;3.22;;
22603;SDS011;11469;49.024;8.246;2023-05-07T09:05:58;5.55;;;3.60;;
22603;SDS011;11469;49.024;8.246;2023-05-07T09:08:24;7.40;;;3.45;;
22603;SDS011;11469;49.024;8.246;2023-05-07T09:10:51;3.78;;;2.35;;
22603;SDS011;11469;49.024;8.246;2023-05-07T09:13:17;5.47;;;2.90;;
22603;SDS011;11469;49.024;8.246;2023-05-07T09:15:43;7.45;;;3.08;;
22603;SDS011;11469;49.024;8.246;2023-05-07T09:18:09;5.50;;;2.75;;
22603;SDS011;11469;49.024;8.246;2023-05-07T09:20:36;4.28;;;2.75;;
22603;SDS011;11469;49.024;8.246;2023-05-07T09:23:02;4.68;;;3.00;;
22603;SDS011;11469;49.024;8.246;2023-05-07T09:25:31;8.27;;;3.53;;
22603;SDS011;11469;49.024;8.246;2023-05-07T09:27:57;4.70;;;2.53;;
22603;SDS011;11469;49.024;8.246;2023-05-07T09:30:28;5.70;;;2.92;;
22603;SDS011;11469;49.024;8.246;2023-05-07T09:32:57;4.82;;;2.65;;
22603;SDS011;11469;49.024;8.246;2023-05-07T09:35:24;3.92;;;2.42;;
22603;SDS011;11469;49.024;8.246;2023-05-07T09:37:55;4.65;;;2.63;;
22603;SDS011;11469;49.024;8.246;2023-05-07T09:40:22;5.18;;;2.63;;
22603;SDS011;11469;49.024;8.246;2023-05-07T09:42:52;6.53;;;2.60;;
22603;SDS011;11469;49.024;8.246;2023-05-07T09:45:23;4.13;;;2.50;;
22603;SDS011;11469;49.024;8.246;2023-05-07T09:47:52;4.50;;;2.50;;
22603;SDS011;11469;49.024;8.246;2023-05-07T09:50:19;4.05;;;2.30;;
22603;SDS011;11469;49.024;8.246;2023-05-07T09:52:51;3.50;;;2.10;;
22603;SDS011;11469;49.024;8.246;2023-05-07T09:55:17;5.82;;;1.83;;
22603;SDS011;11469;49.024;8.246;2023-05-07T09:57:43;6.40;;;1.75;;
22603;SDS011;11469;49.024;8.246;2023-05-07T10:00:10;5.32;;;2.00;;
22603;SDS011;11469;49.024;8.246;2023-05-07T10:02:37;5.35;;;1.98;;
22603;SDS011;11469;49.024;8.246;2023-05-07T10:05:11;6.88;;;1.90;;
22603;SDS011;11469;49.024;8.246;2023-05-07T10:07:37;6.22;;;2.00;;
22603;SDS011;11469;49.024;8.246;2023-05-07T10:10:04;5.18;;;1.80;;
22603;SDS011;11469;49.024;8.246;2023-05-07T10:12:31;3.42;;;2.00;;
22603;SDS011;11469;49.024;8.246;2023-05-07T10:15:03;6.88;;;2.03;;
22603;SDS011;11469;49.024;8.246;2023-05-07T10:17:29;4.28;;;1.92;;
22603;SDS011;11469;49.024;8.246;2023-05-07T10:19:54;4.93;;;2.20;;
22603;SDS011;11469;49.024;8.246;2023-05-07T10:22:20;7.00;;;2.00;;
22603;SDS011;11469;49.024;8.246;2023-05-07T10:24:47;5.07;;;2.17;;
22603;SDS011;11469;49.024;8.246;2023-05-07T10:27:15;4.70;;;2.10;;
22603;SDS011;11469;49.024;8.246;2023-05-07T10:29:49;4.25;;;2.00;;
22603;SDS011;11469;49.024;8.246;2023-05-07T10:34:56;4.00;;;1.90;;
22603;SDS011;11469;49.024;8.246;2023-05-07T10:37:27;4.85;;;2.08;;
22603;SDS011;11469;49.024;8.246;2023-05-07T10:39:54;7.57;;;2.33;;
22603;SDS011;11469;49.024;8.246;2023-05-07T10:42:19;5.15;;;2.05;;
22603;SDS011;11469;49.024;8.246;2023-05-07T10:44:45;6.22;;;1.42;;
22603;SDS011;11469;49.024;8.246;2023-05-07T10:47:11;4.03;;;1.83;;
22603;SDS011;11469;49.024;8.246;2023-05-07T10:52:12;2.97;;;1.65;;
22603;SDS011;11469;49.024;8.246;2023-05-07T10:54:42;4.50;;;2.28;;
22603;SDS011;11469;49.024;8.246;2023-05-07T10:59:55;7.07;;;2.08;;
22603;SDS011;11469;49.024;8.246;2023-05-07T11:02:21;4.90;;;2.20;;
22603;SDS011;11469;49.024;8.246;2023-05-07T11:05:18;10.70;;;2.13;;
22603;SDS011;11469;49.024;8.246;2023-05-07T11:08:00;3.40;;;1.77;;
22603;SDS011;11469;49.024;8.246;2023-05-07T11:16:16;4.22;;;2.00;;
22603;SDS011;11469;49.024;8.246;2023-05-07T11:18:50;5.50;;;1.88;;
22603;SDS011;11469;49.024;8.246;2023-05-07T11:24:01;3.72;;;1.90;;
22603;SDS011;11469;49.024;8.246;2023-05-07T11:26:29;3.92;;;1.92;;
22603;SDS011;11469;49.024;8.246;2023-05-07T11:28:56;3.63;;;1.75;;
22603;SDS011;11469;49.024;8.246;2023-05-07T11:31:23;5.40;;;1.83;;
22603;SDS011;11469;49.024;8.246;2023-05-07T11:33:51;5.05;;;1.92;;
22603;SDS011;11469;49.024;8.246;2023-05-07T11:36:17;5.35;;;2.10;;
22603;SDS011;11469;49.024;8.246;2023-05-07T11:38:43;3.67;;;1.92;;
22603;SDS011;11469;49.024;8.246;2023-05-07T11:41:08;5.45;;;2.00;;
22603;SDS011;11469;49.024;8.246;2023-05-07T11:43:34;3.75;;;1.67;;
22603;SDS011;11469;49.024;8.246;2023-05-07T11:48:36;5.55;;;2.28;;
22603;SDS011;11469;49.024;8.246;2023-05-07T11:51:02;5.05;;;2.10;;
22603;SDS011;11469;49.024;8.246;2023-05-07T11:53:39;9.35;;;1.80;;
22603;SDS011;11469;49.024;8.246;2023-05-07T11:56:06;3.67;;;1.80;;
22603;SDS011;11469;49.024;8.246;2023-05-07T11:58:35;7.57;;;2.35;;
22603;SDS011;11469;49.024;8.246;2023-05-07T12:01:01;4.50;;;2.03;;
22603;SDS011;11469;49.024;8.246;2023-05-07T12:03:27;5.43;;;1.48;;
22603;SDS011;11469;49.024;8.246;2023-05-07T12:05:52;3.63;;;1.85;;
22603;SDS011;11469;49.024;8.246;2023-05-07T12:08:18;7.85;;;2.20;;
22603;SDS011;11469;49.024;8.246;2023-05-07T12:10:45;5.47;;;2.13;;
22603;SDS011;11469;49.024;8.246;2023-05-07T12:13:19;7.30;;;2.42;;
22603;SDS011;11469;49.024;8.246;2023-05-07T12:15:46;13.20;;;2.03;;
22603;SDS011;11469;49.024;8.246;2023-05-07T12:18:11;7.22;;;1.95;;
22603;SDS011;11469;49.024;8.246;2023-05-07T12:20:38;3.72;;;2.00;;
22603;SDS011;11469;49.024;8.246;2023-05-07T12:23:04;5.22;;;1.90;;
22603;SDS011;11469;49.024;8.246;2023-05-07T12:25:37;4.13;;;1.77;;
22603;SDS011;11469;49.024;8.246;2023-05-07T12:28:05;5.07;;;1.80;;
22603;SDS011;11469;49.024;8.246;2023-05-07T12:30:37;3.58;;;1.98;;
22603;SDS011;11469;49.024;8.246;2023-05-07T12:33:03;3.72;;;1.95;;
22603;SDS011;11469;49.024;8.246;2023-05-07T12:35:29;2.35;;;1.70;;
22603;SDS011;11469;49.024;8.246;2023-05-07T12:38:02;4.60;;;1.65;;
22603;SDS011;11469;49.024;8.246;2023-05-07T12:40:39;5.50;;;1.77;;
22603;SDS011;11469;49.024;8.246;2023-05-07T12:43:19;3.30;;;1.60;;
22603;SDS011;11469;49.024;8.246;2023-05-07T12:45:47;6.85;;;2.17;;
22603;SDS011;11469;49.024;8.246;2023-05-07T12:48:15;4.32;;;1.80;;
22603;SDS011;11469;49.024;8.246;2023-05-07T12:50:40;4.63;;;1.95;;
22603;SDS011;11469;49.024;8.246;2023-05-07T12:53:07;4.43;;;2.13;;
22603;SDS011;11469;49.024;8.246;2023-05-07T12:55:46;5.57;;;2.15;;
22603;SDS011;11469;49.024;8.246;2023-05-07T12:58:19;5.07;;;2.00;;
22603;SDS011;11469;49.024;8.246;2023-05-07T13:00:49;5.18;;;3.10;;
22603;SDS011;11469;49.024;8.246;2023-05-07T13:03:37;8.35;;;4.68;;
22603;SDS011;11469;49.024;8.246;2023-05-07T13:06:06;9.90;;;6.95;;
22603;SDS011;11469;49.024;8.246;2023-05-07T13:08:38;7.43;;;5.35;;
22603;SDS011;11469;49.024;8.246;2023-05-07T13:11:07;8.55;;;5.82;;
22603;SDS011;11469;49.024;8.246;2023-05-07T13:13:36;9.38;;;6.38;;
22603;SDS011;11469;49.024;8.246;2023-05-07T13:16:03;8.85;;;6.03;;
22603;SDS011;11469;49.024;8.246;2023-05-07T13:18:29;11.20;;;5.95;;
22603;SDS011;11469;49.024;8.246;2023-05-07T13:20:55;9.90;;;5.00;;
22603;SDS011;11469;49.024;8.246;2023-05-07T13:23:21;6.13;;;4.10;;
22603;SDS011;11469;49.024;8.246;2023-05-07T13:25:47;6.68;;;3.72;;
22603;SDS011;11469;49.024;8.246;2023-05-07T13:28:13;5.70;;;3.75;;
22603;SDS011;11469;49.024;8.246;2023-05-07T13:30:39;8.02;;;3.08;;
22603;SDS011;11469;49.024;8.246;2023-05-07T13:33:05;7.55;;;3.78;;
22603;SDS011;11469;49.024;8.246;2023-05-07T13:35:31;8.75;;;4.15;;
22603;SDS011;11469;49.024;8.246;2023-05-07T13:37:57;5.68;;;3.40;;
22603;SDS011;11469;49.024;8.246;2023-05-07T13:40:23;9.75;;;3.13;;
22603;SDS011;11469;49.024;8.246;2023-05-07T13:42:48;8.10;;;3.70;;
22603;SDS011;11469;49.024;8.246;2023-05-07T13:45:14;7.28;;;3.53;;
22603;SDS011;11469;49.024;8.246;2023-05-07T13:47:40;9.00;;;3.00;;
22603;SDS011;11469;49.024;8.246;2023-05-07T13:50:07;5.43;;;2.85;;
22603;SDS011;11469;49.024;8.246;2023-05-07T13:52:33;5.80;;;2.58;;
22603;SDS011;11469;49.024;8.246;2023-05-07T13:54:59;5.50;;;2.80;;
22603;SDS011;11469;49.024;8.246;2023-05-07T13:57:24;4.72;;;2.65;;
22603;SDS011;11469;49.024;8.246;2023-05-07T13:59:50;8.18;;;2.85;;
22603;SDS011;11469;49.024;8.246;2023-05-07T14:02:15;5.38;;;2.92;;
22603;SDS011;11469;49.024;8.246;2023-05-07T14:04:40;10.57;;;2.80;;
22603;SDS011;11469;49.024;8.246;2023-05-07T14:07:06;7.63;;;2.65;;
22603;SDS011;11469;49.024;8.246;2023-05-07T14:09:31;5.75;;;3.17;;
22603;SDS011;11469;49.024;8.246;2023-05-07T14:11:57;10.32;;;2.78;;
22603;SDS011;11469;49.024;8.246;2023-05-07T14:14:22;7.43;;;2.55;;
22603;SDS011;11469;49.024;8.246;2023-05-07T14:16:47;6.68;;;2.72;;
22603;SDS011;11469;49.024;8.246;2023-05-07T14:19:13;7.80;;;3.00;;
22603;SDS011;11469;49.024;8.246;2023-05-07T14:21:38;9.48;;;3.53;;
22603;SDS011;11469;49.024;8.246;2023-05-07T14:24:05;5.45;;;2.72;;
22603;SDS011;11469;49.024;8.246;2023-05-07T14:26:32;5.82;;;4.05;;
22603;SDS011;11469;49.024;8.246;2023-05-07T14:28:58;11.98;;;3.17;;
22603;SDS011;11469;49.024;8.246;2023-05-07T14:31:23;10.90;;;5.10;;
22603;SDS011;11469;49.024;8.246;2023-05-07T14:33:49;10.25;;;3.45;;
22603;SDS011;11469;49.024;8.246;2023-05-07T14:36:15;6.13;;;3.08;;
22603;SDS011;11469;49.024;8.246;2023-05-07T14:38:42;6.53;;;3.00;;
22603;SDS011;11469;49.024;8.246;2023-05-07T14:41:07;4.40;;;2.22;;
22603;SDS011;11469;49.024;8.246;2023-05-07T14:43:33;10.18;;;2.50;;
22603;SDS011;11469;49.024;8.246;2023-05-07T14:45:58;4.85;;;2.00;;
22603;SDS011;11469;49.024;8.246;2023-05-07T14:48:23;3.38;;;1.38;;
22603;SDS011;11469;49.024;8.246;2023-05-07T14:50:49;4.10;;;1.70;;
22603;SDS011;11469;49.024;8.246;2023-05-07T14:53:15;4.45;;;1.48;;
22603;SDS011;11469;49.024;8.246;2023-05-07T14:55:40;3.33;;;1.45;;
22603;SDS011;11469;49.024;8.246;2023-05-07T14:58:06;3.28;;;1.50;;
22603;SDS011;11469;49.024;8.246;2023-05-07T15:00:31;6.32;;;1.52;;